EST,Max TemperatureF,Mean TemperatureF,Min TemperatureF,Max Dew PointF,MeanDew PointF,Min DewpointF,Max Humidity, Mean Humidity, Min Humidity, Max Sea Level PressureIn, Mean Sea Level PressureIn, Min Sea Level PressureIn, Max VisibilityMiles, Mean VisibilityMiles, Min VisibilityMiles, Max Wind SpeedMPH, Mean Wind SpeedMPH, Max Gust SpeedMPH,PrecipitationIn, CloudCover, Events, WindDirDegrees
2012-11-1,62,46,30,34,31,19,100,68,27,29.92,29.84,29.80,10,10,9,14,2,21,0.00,0,,284
2012-11-2,73,52,32,43,35,28,100,65,25,29.98,29.91,29.82,10,10,10,14,2,24,0.00,0,Rain,267
2012-11-3,71,52,32,43,36,27,100,70,23,30.13,30.04,29.99,10,9,4,6,1,,0.00,0,Rain,197
2012-11-4,66,55,44,54,46,41,100,80,45,30.02,29.98,29.93,10,9,2,7,1,,0.00,1,Rain-Thunderstorm,34
2012-11-5,60,50,39,48,38,28,100,73,29,30.10,30.05,30.00,10,10,4,12,3,,0.00,1,Rain,31
2012-11-6,50,42,33,39,35,28,100,78,43,30.11,30.03,29.95,10,10,7,13,4,18,0.00,0,Rain,38
2012-11-7,55,44,32,41,34,30,100,81,41,29.97,29.92,29.85,10,8,2,9,2,,0.00,1,Rain,333
2012-11-8,64,47,30,45,30,19,100,70,18,30.16,30.07,29.97,10,8,0,14,2,21,0.00,0,Fog-Rain,323
2012-11-9,68,48,28,37,31,25,100,71,20,30.29,30.23,30.16,10,10,8,9,1,,0.00,0,Rain-Snow,260
2012-11-10,73,52,30,43,35,27,100,61,18,30.39,30.34,30.29,10,9,4,6,1,,0.00,0,,215
2012-11-11,71,52,32,55,45,32,100,80,35,30.48,30.42,30.39,10,9,4,7,1,,0.00,1,,196
2012-11-12,73,63,53,66,61,54,100,93,69,30.40,30.29,30.18,10,10,5,8,1,,0.00,1,Rain,159
2012-11-13,60,50,39,61,47,39,100,93,58,30.39,30.29,30.17,10,8,2,13,4,20,0.00,5,Rain,32
2012-11-14,53,45,37,39,34,30,100,70,44,30.46,30.39,30.32,10,10,9,15,7,20,0.00,2,,36
2012-11-15,46,42,37,43,38,32,100,87,61,30.34,30.29,30.25,10,8,2,14,7,20,0.00,6,Rain,23
2012-11-16,57,44,32,41,37,32,100,81,41,30.38,30.30,30.26,10,10,7,9,3,,0.00,2,Rain,24
2012-11-17,57,44,32,36,29,23,100,62,27,30.46,30.41,30.38,10,9,5,20,5,23,0.00,1,,36
2012-11-18,59,52,44,46,40,28,87,67,46,30.43,30.37,30.31,10,10,9,17,11,28,0.00,2,,20
2012-11-19,64,54,44,50,46,41,100,76,55,30.32,30.25,30.19,10,10,10,15,9,22,0.00,4,,20
2012-11-20,62,50,37,48,43,37,100,85,48,30.19,30.13,30.07,10,10,5,9,3,,0.00,0,,13
2012-11-21,64,48,32,46,37,32,100,79,32,30.19,30.14,30.09,10,8,4,10,2,,0.00,0,,20
2012-11-22,64,48,32,39,33,28,100,74,26,30.27,30.21,30.17,10,10,8,12,2,,0.00,0,,23
2012-11-23,68,48,28,45,37,28,100,72,32,30.19,30.05,29.92,10,10,8,10,1,,0.00,0,,238
2012-11-24,55,42,28,32,27,19,100,63,29,30.13,30.03,29.96,10,10,10,10,3,,0.00,0,Rain-Thunderstorm,305
2012-11-25,53,37,21,28,23,18,100,69,24,30.22,30.13,30.06,10,10,10,8,1,,0.00,0,,212
2012-11-26,66,46,26,34,28,23,100,66,19,30.22,30.16,30.11,10,10,10,5,0,,0.00,0,Rain-Snow,55
2012-11-27,53,45,37,52,45,32,100,91,58,30.22,30.16,30.10,10,8,1,8,1,,0.00,4,Rain,14
2012-11-28,55,44,30,46,38,30,100,86,41,30.39,30.32,30.22,10,8,1,7,3,,0.00,2,Rain,23
2012-11-29,55,40,26,39,32,27,100,83,41,30.49,30.42,30.38,10,8,3,8,1,,0.00,0,Rain,192
2012-11-30,62,44,26,46,36,27,100,83,38,30.42,30.36,30.29,10,8,2,8,1,,0.00,0,,219